sensor_id;sensor_type;location;lat;lon;timestamp;P1;durP1;ratioP1;P2;durP2;ratioP2
846;SDS011;410;48.954;9.474;2024-02-21T00:00:05;16.50;;;8.65;;
846;SDS011;410;48.954;9.474;2024-02-21T00:02:09;14.80;;;8.48;;
846;SDS011;410;48.954;9.474;2024-02-21T00:04:12;12.05;;;7.93;;
846;SDS011;410;48.954;9.474;2024-02-21T00:06:16;14.68;;;8.32;;
846;SDS011;410;48.954;9.474;2024-02-21T00:08:19;13.95;;;8.07;;
846;SDS011;410;48.954;9.474;2024-02-21T00:10:22;13.55;;;7.60;;
846;SDS011;410;48.954;9.474;2024-02-21T00:12:26;12.55;;;6.80;;
846;SDS011;410;48.954;9.474;2024-02-21T00:14:31;12.80;;;7.53;;
846;SDS011;410;48.954;9.474;2024-02-21T00:16:35;17.13;;;7.38;;
846;SDS011;410;48.954;9.474;2024-02-21T00:18:38;12.40;;;7.30;;
846;SDS011;410;48.954;9.474;2024-02-21T00:20:41;13.13;;;7.50;;
846;SDS011;410;48.954;9.474;2024-02-21T00:22:45;15.40;;;7.00;;
846;SDS011;410;48.954;9.474;2024-02-21T00:24:47;12.63;;;7.20;;
846;SDS011;410;48.954;9.474;2024-02-21T00:26:50;9.93;;;7.30;;
846;SDS011;410;48.954;9.474;2024-02-21T00:28:53;12.30;;;6.53;;
846;SDS011;410;48.954;9.474;2024-02-21T00:30:58;14.93;;;7.82;;
846;SDS011;410;48.954;9.474;2024-02-21T00:33:01;10.65;;;6.63;;
846;SDS011;410;48.954;9.474;2024-02-21T00:35:05;10.93;;;7.22;;
846;SDS011;410;48.954;9.474;2024-02-21T00:37:09;10.13;;;7.22;;
846;SDS011;410;48.954;9.474;2024-02-21T00:39:12;13.70;;;8.52;;
846;SDS011;410;48.954;9.474;2024-02-21T00:41:15;12.50;;;6.88;;
846;SDS011;410;48.954;9.474;2024-02-21T00:43:20;14.50;;;7.27;;
846;SDS011;410;48.954;9.474;2024-02-21T00:45:25;12.18;;;6.82;;
846;SDS011;410;48.954;9.474;2024-02-21T00:47:30;11.40;;;7.60;;
846;SDS011;410;48.954;9.474;2024-02-21T00:49:33;11.60;;;7.40;;
846;SDS011;410;48.954;9.474;2024-02-21T00:51:36;13.00;;;7.63;;
846;SDS011;410;48.954;9.474;2024-02-21T00:53:40;14.27;;;7.57;;
846;SDS011;410;48.954;9.474;2024-02-21T00:55:43;13.00;;;7.00;;
846;SDS011;410;48.954;9.474;2024-02-21T00:57:46;10.82;;;6.72;;
846;SDS011;410;48.954;9.474;2024-02-21T00:59:49;13.38;;;7.50;;
846;SDS011;410;48.954;9.474;2024-02-21T01:01:52;10.57;;;6.40;;
846;SDS011;410;48.954;9.474;2024-02-21T01:03:57;14.07;;;6.18;;
846;SDS011;410;48.954;9.474;2024-02-21T01:06:00;13.60;;;6.45;;
846;SDS011;410;48.954;9.474;2024-02-21T01:08:04;9.98;;;6.28;;
846;SDS011;410;48.954;9.474;2024-02-21T01:10:08;9.48;;;5.90;;
846;SDS011;410;48.954;9.474;2024-02-21T01:12:12;17.90;;;6.50;;
846;SDS011;410;48.954;9.474;2024-02-21T01:14:15;11.90;;;6.10;;
846;SDS011;410;48.954;9.474;2024-02-21T01:16:18;10.63;;;5.80;;
846;SDS011;410;48.954;9.474;2024-02-21T01:18:21;12.53;;;6.37;;
846;SDS011;410;48.954;9.474;2024-02-21T01:20:25;13.02;;;7.15;;
846;SDS011;410;48.954;9.474;2024-02-21T01:22:29;10.95;;;6.68;;
846;SDS011;410;48.954;9.474;2024-02-21T01:24:32;12.35;;;6.50;;
846;SDS011;410;48.954;9.474;2024-02-21T01:26:35;12.50;;;6.97;;
846;SDS011;410;48.954;9.474;2024-02-21T01:28:39;11.23;;;6.50;;
846;SDS011;410;48.954;9.474;2024-02-21T01:30:42;12.47;;;6.70;;
846;SDS011;410;48.954;9.474;2024-02-21T01:32:46;9.35;;;6.22;;
846;SDS011;410;48.954;9.474;2024-02-21T01:34:49;14.07;;;6.45;;
846;SDS011;410;48.954;9.474;2024-02-21T01:36:53;13.45;;;6.68;;
846;SDS011;410;48.954;9.474;2024-02-21T01:38:56;7.82;;;5.68;;
846;SDS011;410;48.954;9.474;2024-02-21T01:40:59;10.23;;;5.53;;
846;SDS011;410;48.954;9.474;2024-02-21T01:43:02;8.87;;;5.50;;
846;SDS011;410;48.954;9.474;2024-02-21T01:45:06;11.23;;;6.38;;
846;SDS011;410;48.954;9.474;2024-02-21T01:47:11;11.32;;;6.75;;
846;SDS011;410;48.954;9.474;2024-02-21T01:49:15;10.45;;;6.68;;
846;SDS011;410;48.954;9.474;2024-02-21T01:51:19;11.63;;;6.07;;
846;SDS011;410;48.954;9.474;2024-02-21T01:53:25;9.20;;;7.27;;
846;SDS011;410;48.954;9.474;2024-02-21T01:55:31;9.50;;;6.70;;
846;SDS011;410;48.954;9.474;2024-02-21T01:57:34;10.82;;;7.10;;
846;SDS011;410;48.954;9.474;2024-02-21T01:59:41;10.63;;;6.03;;
846;SDS011;410;48.954;9.474;2024-02-21T02:01:45;11.80;;;6.17;;
846;SDS011;410;48.954;9.474;2024-02-21T02:03:49;12.27;;;5.57;;
846;SDS011;410;48.954;9.474;2024-02-21T02:05:52;13.10;;;6.13;;
846;SDS011;410;48.954;9.474;2024-02-21T02:07:55;13.73;;;5.77;;
846;SDS011;410;48.954;9.474;2024-02-21T02:09:59;9.95;;;5.90;;
846;SDS011;410;48.954;9.474;2024-02-21T02:12:02;12.88;;;6.05;;
846;SDS011;410;48.954;9.474;2024-02-21T02:14:06;9.65;;;5.97;;
846;SDS011;410;48.954;9.474;2024-02-21T02:16:09;9.43;;;5.55;;
846;SDS011;410;48.954;9.474;2024-02-21T02:18:13;10.98;;;5.25;;
846;SDS011;410;48.954;9.474;2024-02-21T02:20:17;6.47;;;4.60;;
846;SDS011;410;48.954;9.474;2024-02-21T02:22:22;12.95;;;5.00;;
846;SDS011;410;48.954;9.474;2024-02-21T02:24:27;11.30;;;6.68;;
846;SDS011;410;48.954;9.474;2024-02-21T02:26:30;8.50;;;4.70;;
846;SDS011;410;48.954;9.474;2024-02-21T02:28:34;8.33;;;5.23;;
846;SDS011;410;48.954;9.474;2024-02-21T02:30:36;13.10;;;5.83;;
846;SDS011;410;48.954;9.474;2024-02-21T02:32:39;8.10;;;5.50;;
846;SDS011;410;48.954;9.474;2024-02-21T02:34:46;10.45;;;5.40;;
846;SDS011;410;48.954;9.474;2024-02-21T02:36:49;9.85;;;5.57;;
846;SDS011;410;48.954;9.474;2024-02-21T02:38:52;9.00;;;5.30;;
846;SDS011;410;48.954;9.474;2024-02-21T02:40:56;8.73;;;5.03;;
846;SDS011;410;48.954;9.474;2024-02-21T02:42:59;10.27;;;5.20;;
846;SDS011;410;48.954;9.474;2024-02-21T02:45:03;12.35;;;5.32;;
846;SDS011;410;48.954;9.474;2024-02-21T02:47:06;9.10;;;5.10;;
846;SDS011;410;48.954;9.474;2024-02-21T02:49:10;9.45;;;4.97;;
846;SDS011;410;48.954;9.474;2024-02-21T02:51:13;11.05;;;5.75;;
846;SDS011;410;48.954;9.474;2024-02-21T02:53:16;11.63;;;5.43;;
846;SDS011;410;48.954;9.474;2024-02-21T02:55:19;10.00;;;5.70;;
846;SDS011;410;48.954;9.474;2024-02-21T02:57:24;12.50;;;5.70;;
846;SDS011;410;48.954;9.474;2024-02-21T02:59:27;8.85;;;4.95;;
846;SDS011;410;48.954;9.474;2024-02-21T03:01:33;6.57;;;4.75;;
846;SDS011;410;48.954;9.474;2024-02-21T03:03:36;10.77;;;5.40;;
846;SDS011;410;48.954;9.474;2024-02-21T03:05:39;8.57;;;5.25;;
846;SDS011;410;48.954;9.474;2024-02-21T03:07:43;10.05;;;7.00;;
846;SDS011;410;48.954;9.474;2024-02-21T03:09:47;9.30;;;5.75;;
846;SDS011;410;48.954;9.474;2024-02-21T03:11:50;10.53;;;5.90;;
846;SDS011;410;48.954;9.474;2024-02-21T03:13:59;12.90;;;6.15;;
846;SDS011;410;48.954;9.474;2024-02-21T03:16:03;12.65;;;6.10;;
846;SDS011;410;48.954;9.474;2024-02-21T03:18:07;15.55;;;6.25;;
846;SDS011;410;48.954;9.474;2024-02-21T03:20:10;9.13;;;5.80;;
846;SDS011;410;48.954;9.474;2024-02-21T03:22:14;11.27;;;6.20;;
846;SDS011;410;48.954;9.474;2024-02-21T03:24:18;8.80;;;5.82;;
846;SDS011;410;48.954;9.474;2024-02-21T03:26:21;13.13;;;5.75;;
846;SDS011;410;48.954;9.474;2024-02-21T03:28:25;12.18;;;5.88;;
846;SDS011;410;48.954;9.474;2024-02-21T03:30:30;9.73;;;6.03;;
846;SDS011;410;48.954;9.474;2024-02-21T03:32:33;9.50;;;5.70;;
846;SDS011;410;48.954;9.474;2024-02-21T03:34:36;8.93;;;5.72;;
846;SDS011;410;48.954;9.474;2024-02-21T03:36:40;10.20;;;5.97;;
846;SDS011;410;48.954;9.474;2024-02-21T03:38:43;11.63;;;5.38;;
846;SDS011;410;48.954;9.474;2024-02-21T03:40:46;11.40;;;6.45;;
846;SDS011;410;48.954;9.474;2024-02-21T03:42:50;9.85;;;5.38;;
846;SDS011;410;48.954;9.474;2024-02-21T03:44:53;9.40;;;5.45;;
846;SDS011;410;48.954;9.474;2024-02-21T03:46:58;14.07;;;5.05;;
846;SDS011;410;48.954;9.474;2024-02-21T03:49:02;12.80;;;5.43;;
846;SDS011;410;48.954;9.474;2024-02-21T03:51:05;10.15;;;5.25;;
846;SDS011;410;48.954;9.474;2024-02-21T03:53:07;11.57;;;5.35;;
846;SDS011;410;48.954;9.474;2024-02-21T03:55:11;12.00;;;5.40;;
846;SDS011;410;48.954;9.474;2024-02-21T03:57:14;8.20;;;5.50;;
846;SDS011;410;48.954;9.474;2024-02-21T03:59:17;6.90;;;4.80;;
846;SDS011;410;48.954;9.474;2024-02-21T04:01:20;10.43;;;5.22;;
846;SDS011;410;48.954;9.474;2024-02-21T04:03:26;8.82;;;4.85;;
846;SDS011;410;48.954;9.474;2024-02-21T04:05:32;9.02;;;4.88;;
846;SDS011;410;48.954;9.474;2024-02-21T04:07:35;8.48;;;4.78;;
846;SDS011;410;48.954;9.474;2024-02-21T04:09:38;9.13;;;4.93;;
846;SDS011;410;48.954;9.474;2024-02-21T04:11:42;9.30;;;5.35;;
846;SDS011;410;48.954;9.474;2024-02-21T04:13:45;8.75;;;5.20;;
846;SDS011;410;48.954;9.474;2024-02-21T04:15:50;8.18;;;4.97;;
846;SDS011;410;48.954;9.474;2024-02-21T04:17:53;8.25;;;5.03;;
846;SDS011;410;48.954;9.474;2024-02-21T04:20:02;13.95;;;5.00;;
846;SDS011;410;48.954;9.474;2024-02-21T04:22:08;7.80;;;4.57;;
846;SDS011;410;48.954;9.474;2024-02-21T04:24:11;6.53;;;4.70;;
846;SDS011;410;48.954;9.474;2024-02-21T04:26:14;12.60;;;5.05;;
846;SDS011;410;48.954;9.474;2024-02-21T04:28:17;13.95;;;5.07;;
846;SDS011;410;48.954;9.474;2024-02-21T04:30:20;12.70;;;5.20;;
846;SDS011;410;48.954;9.474;2024-02-21T04:32:23;8.68;;;4.93;;
846;SDS011;410;48.954;9.474;2024-02-21T04:34:29;8.07;;;4.93;;
846;SDS011;410;48.954;9.474;2024-02-21T04:36:34;9.45;;;4.30;;
846;SDS011;410;48.954;9.474;2024-02-21T04:38:37;9.27;;;4.50;;
846;SDS011;410;48.954;9.474;2024-02-21T04:40:40;7.40;;;4.65;;
846;SDS011;410;48.954;9.474;2024-02-21T04:42:44;9.38;;;5.00;;
846;SDS011;410;48.954;9.474;2024-02-21T04:44:47;8.13;;;4.45;;
846;SDS011;410;48.954;9.474;2024-02-21T04:46:50;5.53;;;4.30;;
846;SDS011;410;48.954;9.474;2024-02-21T04:48:53;8.30;;;4.63;;
846;SDS011;410;48.954;9.474;2024-02-21T04:50:57;9.00;;;4.93;;
846;SDS011;410;48.954;9.474;2024-02-21T04:53:01;11.77;;;5.15;;
846;SDS011;410;48.954;9.474;2024-02-21T04:55:05;16.98;;;7.57;;
846;SDS011;410;48.954;9.474;2024-02-21T04:57:08;13.48;;;7.72;;
846;SDS011;410;48.954;9.474;2024-02-21T04:59:12;10.85;;;6.70;;
846;SDS011;410;48.954;9.474;2024-02-21T05:01:15;8.40;;;5.63;;
846;SDS011;410;48.954;9.474;2024-02-21T05:03:19;9.88;;;5.68;;
846;SDS011;410;48.954;9.474;2024-02-21T05:05:23;9.52;;;5.72;;
846;SDS011;410;48.954;9.474;2024-02-21T05:07:26;9.90;;;5.20;;
846;SDS011;410;48.954;9.474;2024-02-21T05:09:30;8.35;;;5.20;;
846;SDS011;410;48.954;9.474;2024-02-21T05:11:33;11.88;;;6.00;;
846;SDS011;410;48.954;9.474;2024-02-21T05:13:36;13.43;;;6.32;;
846;SDS011;410;48.954;9.474;2024-02-21T05:15:39;10.65;;;5.90;;
846;SDS011;410;48.954;9.474;2024-02-21T05:17:42;6.50;;;5.28;;
846;SDS011;410;48.954;9.474;2024-02-21T05:19:45;9.63;;;5.97;;
846;SDS011;410;48.954;9.474;2024-02-21T05:21:48;10.80;;;5.50;;
846;SDS011;410;48.954;9.474;2024-02-21T05:23:52;9.32;;;4.53;;
846;SDS011;410;48.954;9.474;2024-02-21T05:25:57;9.90;;;4.80;;
846;SDS011;410;48.954;9.474;2024-02-21T05:28:00;10.40;;;5.70;;
846;SDS011;410;48.954;9.474;2024-02-21T05:30:05;10.35;;;5.40;;
846;SDS011;410;48.954;9.474;2024-02-21T05:32:09;13.23;;;5.50;;
846;SDS011;410;48.954;9.474;2024-02-21T05:34:12;11.57;;;5.30;;
846;SDS011;410;48.954;9.474;2024-02-21T05:36:15;10.10;;;5.15;;
846;SDS011;410;48.954;9.474;2024-02-21T05:38:18;11.13;;;5.30;;
846;SDS011;410;48.954;9.474;2024-02-21T05:40:21;10.88;;;4.80;;
846;SDS011;410;48.954;9.474;2024-02-21T05:42:26;11.10;;;5.10;;
846;SDS011;410;48.954;9.474;2024-02-21T05:44:28;10.90;;;5.45;;
846;SDS011;410;48.954;9.474;2024-02-21T05:46:32;10.40;;;5.03;;
846;SDS011;410;48.954;9.474;2024-02-21T05:48:35;11.05;;;4.93;;
846;SDS011;410;48.954;9.474;2024-02-21T05:50:40;8.05;;;4.07;;
846;SDS011;410;48.954;9.474;2024-02-21T05:52:44;9.00;;;4.68;;
846;SDS011;410;48.954;9.474;2024-02-21T05:54:47;8.50;;;4.55;;
846;SDS011;410;48.954;9.474;2024-02-21T05:56:51;9.00;;;4.70;;
846;SDS011;410;48.954;9.474;2024-02-21T05:58:56;10.57;;;5.43;;
846;SDS011;410;48.954;9.474;2024-02-21T06:00:59;9.98;;;4.88;;
846;SDS011;410;48.954;9.474;2024-02-21T06:03:04;7.93;;;5.00;;
846;SDS011;410;48.954;9.474;2024-02-21T06:05:07;8.88;;;5.43;;
846;SDS011;410;48.954;9.474;2024-02-21T06:07:11;6.78;;;5.53;;
846;SDS011;410;48.954;9.474;2024-02-21T06:09:15;14.70;;;6.70;;
846;SDS011;410;48.954;9.474;2024-02-21T06:11:17;11.60;;;5.80;;
846;SDS011;410;48.954;9.474;2024-02-21T06:13:23;9.02;;;5.10;;
846;SDS011;410;48.954;9.474;2024-02-21T06:15:28;10.63;;;5.60;;
846;SDS011;410;48.954;9.474;2024-02-21T06:17:31;8.95;;;5.30;;
846;SDS011;410;48.954;9.474;2024-02-21T06:19:35;8.00;;;6.00;;
846;SDS011;410;48.954;9.474;2024-02-21T06:21:38;8.07;;;5.20;;
846;SDS011;410;48.954;9.474;2024-02-21T06:23:41;7.13;;;5.22;;
846;SDS011;410;48.954;9.474;2024-02-21T06:25:45;11.48;;;6.32;;
846;SDS011;410;48.954;9.474;2024-02-21T06:27:49;8.13;;;4.72;;
846;SDS011;410;48.954;9.474;2024-02-21T06:29:52;12.20;;;5.03;;
846;SDS011;410;48.954;9.474;2024-02-21T06:31:57;9.55;;;5.20;;
846;SDS011;410;48.954;9.474;2024-02-21T06:34:00;9.75;;;5.68;;
846;SDS011;410;48.954;9.474;2024-02-21T06:36:04;9.70;;;6.75;;
846;SDS011;410;48.954;9.474;2024-02-21T06:38:07;10.68;;;7.00;;
846;SDS011;410;48.954;9.474;2024-02-21T06:40:11;12.90;;;7.50;;
846;SDS011;410;48.954;9.474;2024-02-21T06:42:15;11.70;;;6.22;;
846;SDS011;410;48.954;9.474;2024-02-21T06:44:18;9.00;;;6.50;;
846;SDS011;410;48.954;9.474;2024-02-21T06:46:23;10.05;;;5.88;;
846;SDS011;410;48.954;9.474;2024-02-21T06:48:27;9.82;;;5.25;;
846;SDS011;410;48.954;9.474;2024-02-21T06:50:30;10.40;;;6.13;;
846;SDS011;410;48.954;9.474;2024-02-21T06:52:34;11.20;;;6.32;;
846;SDS011;410;48.954;9.474;2024-02-21T06:54:37;11.82;;;7.45;;
846;SDS011;410;48.954;9.474;2024-02-21T06:56:41;9.70;;;6.10;;
846;SDS011;410;48.954;9.474;2024-02-21T06:58:44;10.13;;;6.20;;
846;SDS011;410;48.954;9.474;2024-02-21T07:00:47;9.20;;;5.38;;
846;SDS011;410;48.954;9.474;2024-02-21T07:02:50;9.00;;;5.90;;
846;SDS011;410;48.954;9.474;2024-02-21T07:04:57;15.40;;;5.93;;
846;SDS011;410;48.954;9.474;2024-02-21T07:07:00;6.38;;;4.90;;
846;SDS011;410;48.954;9.474;2024-02-21T07:09:03;9.00;;;5.45;;
846;SDS011;410;48.954;9.474;2024-02-21T07:11:06;11.05;;;5.90;;
846;SDS011;410;48.954;9.474;2024-02-21T07:13:10;10.35;;;6.45;;
846;SDS011;410;48.954;9.474;2024-02-21T07:15:13;10.95;;;6.00;;
846;SDS011;410;48.954;9.474;2024-02-21T07:17:16;9.43;;;5.93;;
846;SDS011;410;48.954;9.474;2024-02-21T07:19:19;10.10;;;5.78;;
846;SDS011;410;48.954;9.474;2024-02-21T07:21:25;7.90;;;5.72;;
846;SDS011;410;48.954;9.474;2024-02-21T07:23:28;7.43;;;4.90;;
846;SDS011;410;48.954;9.474;2024-02-21T07:25:32;8.95;;;6.03;;
846;SDS011;410;48.954;9.474;2024-02-21T07:27:35;7.03;;;4.93;;
846;SDS011;410;48.954;9.474;2024-02-21T07:29:39;8.35;;;5.70;;
846;SDS011;410;48.954;9.474;2024-02-21T07:31:42;11.75;;;6.60;;
846;SDS011;410;48.954;9.474;2024-02-21T07:33:46;9.98;;;5.95;;
846;SDS011;410;48.954;9.474;2024-02-21T07:35:49;10.85;;;6.63;;
846;SDS011;410;48.954;9.474;2024-02-21T07:37:54;11.88;;;6.97;;
846;SDS011;410;48.954;9.474;2024-02-21T07:39:57;10.07;;;6.80;;
846;SDS011;410;48.954;9.474;2024-02-21T07:41:59;10.18;;;6.13;;
846;SDS011;410;48.954;9.474;2024-02-21T07:44:03;10.65;;;6.03;;
846;SDS011;410;48.954;9.474;2024-02-21T07:46:06;10.57;;;6.15;;
846;SDS011;410;48.954;9.474;2024-02-21T07:48:09;9.80;;;6.03;;
846;SDS011;410;48.954;9.474;2024-02-21T07:50:13;10.60;;;5.88;;
846;SDS011;410;48.954;9.474;2024-02-21T07:52:16;10.93;;;5.83;;
846;SDS011;410;48.954;9.474;2024-02-21T07:54:21;7.53;;;5.40;;
846;SDS011;410;48.954;9.474;2024-02-21T07:56:27;8.60;;;5.93;;
846;SDS011;410;48.954;9.474;2024-02-21T07:58:30;12.63;;;5.75;;
846;SDS011;410;48.954;9.474;2024-02-21T08:00:34;10.50;;;7.82;;
846;SDS011;410;48.954;9.474;2024-02-21T08:02:37;10.70;;;7.40;;
846;SDS011;410;48.954;9.474;2024-02-21T08:04:40;11.15;;;6.45;;
846;SDS011;410;48.954;9.474;2024-02-21T08:06:44;9.73;;;7.13;;
846;SDS011;410;48.954;9.474;2024-02-21T08:08:50;9.13;;;6.70;;
846;SDS011;410;48.954;9.474;2024-02-21T08:10:54;9.27;;;6.60;;
846;SDS011;410;48.954;9.474;2024-02-21T08:12:58;10.57;;;6.40;;
846;SDS011;410;48.954;9.474;2024-02-21T08:15:02;10.20;;;6.33;;
846;SDS011;410;48.954;9.474;2024-02-21T08:17:06;9.40;;;5.60;;
846;SDS011;410;48.954;9.474;2024-02-21T08:19:10;11.73;;;7.55;;
846;SDS011;410;48.954;9.474;2024-02-21T08:21:13;9.77;;;6.40;;
846;SDS011;410;48.954;9.474;2024-02-21T08:23:17;12.10;;;5.65;;
846;SDS011;410;48.954;9.474;2024-02-21T08:25:21;9.53;;;6.40;;
846;SDS011;410;48.954;9.474;2024-02-21T08:27:25;10.47;;;6.07;;
846;SDS011;410;48.954;9.474;2024-02-21T08:29:29;8.77;;;5.20;;
846;SDS011;410;48.954;9.474;2024-02-21T08:31:31;12.37;;;5.80;;
846;SDS011;410;48.954;9.474;2024-02-21T08:33:36;8.83;;;5.00;;
846;SDS011;410;48.954;9.474;2024-02-21T08:35:39;10.07;;;4.83;;
846;SDS011;410;48.954;9.474;2024-02-21T08:37:42;9.77;;;4.50;;
846;SDS011;410;48.954;9.474;2024-02-21T08:39:47;8.77;;;4.20;;
846;SDS011;410;48.954;9.474;2024-02-21T08:41:50;10.60;;;5.13;;
846;SDS011;410;48.954;9.474;2024-02-21T08:44:00;10.07;;;5.00;;
846;SDS011;410;48.954;9.474;2024-02-21T08:46:04;9.37;;;4.17;;
846;SDS011;410;48.954;9.474;2024-02-21T08:48:08;7.60;;;3.83;;
846;SDS011;410;48.954;9.474;2024-02-21T08:50:11;10.00;;;3.63;;
846;SDS011;410;48.954;9.474;2024-02-21T08:52:28;4.60;;;3.10;;
846;SDS011;410;48.954;9.474;2024-02-21T08:54:32;4.60;;;2.60;;
846;SDS011;410;48.954;9.474;2024-02-21T08:56:35;6.17;;;3.20;;
846;SDS011;410;48.954;9.474;2024-02-21T08:58:39;4.60;;;2.93;;
846;SDS011;410;48.954;9.474;2024-02-21T09:00:44;5.77;;;2.90;;
846;SDS011;410;48.954;9.474;2024-02-21T09:02:47;7.17;;;3.27;;
846;SDS011;410;48.954;9.474;2024-02-21T09:04:50;10.00;;;3.47;;
846;SDS011;410;48.954;9.474;2024-02-21T09:06:53;5.27;;;3.23;;
846;SDS011;410;48.954;9.474;2024-02-21T09:08:57;5.13;;;2.73;;
846;SDS011;410;48.954;9.474;2024-02-21T09:11:01;7.30;;;3.40;;
846;SDS011;410;48.954;9.474;2024-02-21T09:13:05;9.70;;;2.90;;
846;SDS011;410;48.954;9.474;2024-02-21T09:15:09;6.50;;;2.93;;
846;SDS011;410;48.954;9.474;2024-02-21T09:17:14;8.07;;;2.90;;
846;SDS011;410;48.954;9.474;2024-02-21T09:19:18;7.33;;;3.40;;
846;SDS011;410;48.954;9.474;2024-02-21T09:21:23;6.80;;;3.17;;
846;SDS011;410;48.954;9.474;2024-02-21T09:23:25;7.80;;;3.17;;
846;SDS011;410;48.954;9.474;2024-02-21T09:25:28;7.40;;;3.43;;
846;SDS011;410;48.954;9.474;2024-02-21T09:27:33;8.23;;;3.70;;
846;SDS011;410;48.954;9.474;2024-02-21T09:29:36;10.63;;;4.30;;
846;SDS011;410;48.954;9.474;2024-02-21T09:31:41;5.83;;;3.10;;
846;SDS011;410;48.954;9.474;2024-02-21T09:33:46;7.63;;;3.30;;
846;SDS011;410;48.954;9.474;2024-02-21T09:35:49;6.30;;;3.50;;
846;SDS011;410;48.954;9.474;2024-02-21T09:37:53;7.50;;;3.37;;
846;SDS011;410;48.954;9.474;2024-02-21T09:39:56;8.00;;;3.10;;
846;SDS011;410;48.954;9.474;2024-02-21T09:42:05;9.43;;;3.40;;
846;SDS011;410;48.954;9.474;2024-02-21T09:44:09;8.43;;;3.80;;
846;SDS011;410;48.954;9.474;2024-02-21T09:46:13;11.90;;;3.80;;
846;SDS011;410;48.954;9.474;2024-02-21T09:48:30;8.50;;;3.60;;
846;SDS011;410;48.954;9.474;2024-02-21T09:50:44;15.30;;;3.83;;
846;SDS011;410;48.954;9.474;2024-02-21T09:52:47;7.23;;;3.37;;
846;SDS011;410;48.954;9.474;2024-02-21T09:54:52;6.77;;;3.50;;
846;SDS011;410;48.954;9.474;2024-02-21T09:56:56;9.77;;;3.33;;
846;SDS011;410;48.954;9.474;2024-02-21T09:59:00;6.73;;;3.47;;
846;SDS011;410;48.954;9.474;2024-02-21T10:01:06;7.80;;;3.40;;
846;SDS011;410;48.954;9.474;2024-02-21T10:03:26;9.80;;;3.43;;
846;SDS011;410;48.954;9.474;2024-02-21T10:05:29;6.13;;;3.50;;
846;SDS011;410;48.954;9.474;2024-02-21T10:07:35;15.63;;;4.40;;
846;SDS011;410;48.954;9.474;2024-02-21T10:09:38;8.67;;;3.60;;
846;SDS011;410;48.954;9.474;2024-02-21T10:11:41;11.20;;;4.17;;
846;SDS011;410;48.954;9.474;2024-02-21T10:13:44;7.67;;;3.90;;
846;SDS011;410;48.954;9.474;2024-02-21T10:15:48;11.13;;;3.60;;
846;SDS011;410;48.954;9.474;2024-02-21T10:17:58;6.70;;;3.47;;
846;SDS011;410;48.954;9.474;2024-02-21T10:20:07;5.00;;;3.00;;
846;SDS011;410;48.954;9.474;2024-02-21T10:22:11;13.07;;;3.90;;
846;SDS011;410;48.954;9.474;2024-02-21T10:24:25;6.77;;;3.40;;
846;SDS011;410;48.954;9.474;2024-02-21T10:26:28;6.83;;;3.43;;
846;SDS011;410;48.954;9.474;2024-02-21T10:28:31;7.70;;;3.23;;
846;SDS011;410;48.954;9.474;2024-02-21T10:30:35;6.30;;;2.80;;
846;SDS011;410;48.954;9.474;2024-02-21T10:32:48;13.50;;;5.53;;
846;SDS011;410;48.954;9.474;2024-02-21T10:35:00;12.27;;;5.97;;
846;SDS011;410;48.954;9.474;2024-02-21T10:37:05;8.43;;;4.20;;
846;SDS011;410;48.954;9.474;2024-02-21T10:39:09;7.93;;;3.50;;
846;SDS011;410;48.954;9.474;2024-02-21T10:41:14;5.13;;;3.23;;
846;SDS011;410;48.954;9.474;2024-02-21T10:43:18;10.33;;;4.00;;
846;SDS011;410;48.954;9.474;2024-02-21T10:45:22;6.60;;;3.17;;
846;SDS011;410;48.954;9.474;2024-02-21T10:47:27;8.37;;;3.40;;
846;SDS011;410;48.954;9.474;2024-02-21T10:49:32;9.60;;;2.97;;
846;SDS011;410;48.954;9.474;2024-02-21T10:51:37;6.97;;;3.20;;
846;SDS011;410;48.954;9.474;2024-02-21T10:53:40;8.40;;;2.97;;
846;SDS011;410;48.954;9.474;2024-02-21T10:55:50;8.80;;;3.33;;
846;SDS011;410;48.954;9.474;2024-02-21T10:57:59;7.30;;;3.00;;
846;SDS011;410;48.954;9.474;2024-02-21T11:00:03;6.27;;;3.53;;
846;SDS011;410;48.954;9.474;2024-02-21T11:02:09;8.87;;;3.47;;
846;SDS011;410;48.954;9.474;2024-02-21T11:04:13;7.40;;;3.23;;
846;SDS011;410;48.954;9.474;2024-02-21T11:06:17;6.90;;;4.07;;
846;SDS011;410;48.954;9.474;2024-02-21T11:08:21;6.30;;;2.70;;
846;SDS011;410;48.954;9.474;2024-02-21T11:10:26;6.50;;;3.23;;
846;SDS011;410;48.954;9.474;2024-02-21T11:12:31;10.17;;;3.20;;
846;SDS011;410;48.954;9.474;2024-02-21T11:14:37;6.63;;;2.67;;
846;SDS011;410;48.954;9.474;2024-02-21T11:16:43;6.63;;;2.63;;
846;SDS011;410;48.954;9.474;2024-02-21T11:18:46;6.23;;;2.60;;
846;SDS011;410;48.954;9.474;2024-02-21T11:20:50;6.90;;;3.10;;
846;SDS011;410;48.954;9.474;2024-02-21T11:22:53;6.23;;;2.90;;
846;SDS011;410;48.954;9.474;2024-02-21T11:25:05;22.77;;;14.87;;
846;SDS011;410;48.954;9.474;2024-02-21T11:27:11;7.80;;;3.23;;
846;SDS011;410;48.954;9.474;2024-02-21T11:29:16;6.20;;;3.30;;
846;SDS011;410;48.954;9.474;2024-02-21T11:31:37;8.07;;;3.13;;
846;SDS011;410;48.954;9.474;2024-02-21T11:33:41;9.23;;;2.77;;
846;SDS011;410;48.954;9.474;2024-02-21T11:35:45;7.80;;;3.00;;
846;SDS011;410;48.954;9.474;2024-02-21T11:37:48;6.20;;;2.80;;
846;SDS011;410;48.954;9.474;2024-02-21T11:39:52;7.70;;;3.00;;
846;SDS011;410;48.954;9.474;2024-02-21T11:42:02;6.77;;;2.80;;
846;SDS011;410;48.954;9.474;2024-02-21T11:44:06;8.90;;;2.30;;
846;SDS011;410;48.954;9.474;2024-02-21T11:46:09;6.57;;;2.73;;
846;SDS011;410;48.954;9.474;2024-02-21T11:48:14;7.50;;;3.40;;
846;SDS011;410;48.954;9.474;2024-02-21T11:50:20;8.07;;;3.50;;
846;SDS011;410;48.954;9.474;2024-02-21T11:52:27;8.20;;;2.63;;
846;SDS011;410;48.954;9.474;2024-02-21T11:54:31;6.10;;;2.80;;
846;SDS011;410;48.954;9.474;2024-02-21T11:56:34;6.70;;;2.70;;
846;SDS011;410;48.954;9.474;2024-02-21T11:58:38;4.63;;;2.17;;
846;SDS011;410;48.954;9.474;2024-02-21T12:00:41;10.10;;;2.87;;
846;SDS011;410;48.954;9.474;2024-02-21T12:02:44;5.90;;;2.70;;
846;SDS011;410;48.954;9.474;2024-02-21T12:04:49;6.50;;;2.87;;
846;SDS011;410;48.954;9.474;2024-02-21T12:06:53;4.90;;;2.60;;
846;SDS011;410;48.954;9.474;2024-02-21T12:08:57;6.80;;;2.60;;
846;SDS011;410;48.954;9.474;2024-02-21T12:11:01;8.70;;;2.40;;
846;SDS011;410;48.954;9.474;2024-02-21T12:13:05;8.17;;;3.50;;
846;SDS011;410;48.954;9.474;2024-02-21T12:15:09;4.37;;;2.73;;
846;SDS011;410;48.954;9.474;2024-02-21T12:17:12;5.63;;;2.20;;
846;SDS011;410;48.954;9.474;2024-02-21T12:19:15;7.37;;;2.67;;
846;SDS011;410;48.954;9.474;2024-02-21T12:21:20;5.47;;;2.60;;
846;SDS011;410;48.954;9.474;2024-02-21T12:23:26;7.53;;;2.77;;
846;SDS011;410;48.954;9.474;2024-02-21T12:25:29;4.88;;;2.55;;
846;SDS011;410;48.954;9.474;2024-02-21T12:27:33;8.13;;;3.63;;
846;SDS011;410;48.954;9.474;2024-02-21T12:29:36;9.53;;;4.47;;
846;SDS011;410;48.954;9.474;2024-02-21T12:31:39;18.63;;;11.03;;
846;SDS011;410;48.954;9.474;2024-02-21T12:33:45;6.93;;;3.20;;
846;SDS011;410;48.954;9.474;2024-02-21T12:35:50;6.20;;;2.30;;
846;SDS011;410;48.954;9.474;2024-02-21T12:37:55;4.97;;;2.53;;
846;SDS011;410;48.954;9.474;2024-02-21T12:39:58;6.87;;;2.47;;
846;SDS011;410;48.954;9.474;2024-02-21T12:42:00;8.83;;;3.40;;
846;SDS011;410;48.954;9.474;2024-02-21T12:44:04;5.60;;;2.20;;
846;SDS011;410;48.954;9.474;2024-02-21T12:46:08;6.00;;;2.57;;
846;SDS011;410;48.954;9.474;2024-02-21T12:48:12;5.23;;;2.50;;
846;SDS011;410;48.954;9.474;2024-02-21T12:50:15;8.10;;;2.90;;
846;SDS011;410;48.954;9.474;2024-02-21T12:52:19;5.50;;;2.40;;
846;SDS011;410;48.954;9.474;2024-02-21T12:54:24;5.40;;;2.30;;
846;SDS011;410;48.954;9.474;2024-02-21T12:56:27;7.53;;;2.60;;
846;SDS011;410;48.954;9.474;2024-02-21T12:58:32;8.10;;;2.87;;
846;SDS011;410;48.954;9.474;2024-02-21T13:00:35;7.20;;;2.60;;
846;SDS011;410;48.954;9.474;2024-02-21T13:02:38;6.17;;;2.23;;
846;SDS011;410;48.954;9.474;2024-02-21T13:04:44;5.37;;;1.80;;
846;SDS011;410;48.954;9.474;2024-02-21T13:06:47;7.77;;;2.27;;
846;SDS011;410;48.954;9.474;2024-02-21T13:08:51;9.17;;;2.20;;
846;SDS011;410;48.954;9.474;2024-02-21T13:10:55;7.87;;;2.20;;